sensor_id;sensor_type;location;lat;lon;timestamp;temperature;humidity
22852;DHT22;11592;45.460;9.240;2022-08-01T00:00:06;26.70;99.90
22852;DHT22;11592;45.460;9.240;2022-08-01T00:02:40;26.70;99.90
22852;DHT22;11592;45.460;9.240;2022-08-01T00:05:08;26.60;99.90
22852;DHT22;11592;45.460;9.240;2022-08-01T00:07:36;26.60;99.90
22852;DHT22;11592;45.460;9.240;2022-08-01T00:10:05;26.50;99.90
22852;DHT22;11592;45.460;9.240;2022-08-01T00:12:32;26.50;99.90
22852;DHT22;11592;45.460;9.240;2022-08-01T00:14:58;26.60;99.90
22852;DHT22;11592;45.460;9.240;2022-08-01T00:17:25;26.50;99.90
22852;DHT22;11592;45.460;9.240;2022-08-01T00:19:52;26.40;99.90
22852;DHT22;11592;45.460;9.240;2022-08-01T00:22:19;26.40;99.90
22852;DHT22;11592;45.460;9.240;2022-08-01T00:24:46;26.50;99.90
22852;DHT22;11592;45.460;9.240;2022-08-01T00:27:12;26.50;99.90
22852;DHT22;11592;45.460;9.240;2022-08-01T00:29:39;26.40;99.90
22852;DHT22;11592;45.460;9.240;2022-08-01T00:32:26;26.40;99.90
22852;DHT22;11592;45.460;9.240;2022-08-01T00:34:52;26.40;99.90
22852;DHT22;11592;45.460;9.240;2022-08-01T00:37:19;26.30;99.90
22852;DHT22;11592;45.460;9.240;2022-08-01T00:39:46;26.30;99.90
22852;DHT22;11592;45.460;9.240;2022-08-01T00:42:13;26.30;99.90
22852;DHT22;11592;45.460;9.240;2022-08-01T00:44:40;26.40;99.90
22852;DHT22;11592;45.460;9.240;2022-08-01T00:47:07;26.40;99.90
22852;DHT22;11592;45.460;9.240;2022-08-01T00:49:34;26.20;99.90
22852;DHT22;11592;45.460;9.240;2022-08-01T00:52:03;26.20;99.90
22852;DHT22;11592;45.460;9.240;2022-08-01T00:54:32;26.10;99.90
22852;DHT22;11592;45.460;9.240;2022-08-01T00:56:59;26.10;99.90
22852;DHT22;11592;45.460;9.240;2022-08-01T00:59:26;26.10;99.90
22852;DHT22;11592;45.460;9.240;2022-08-01T01:01:53;26.10;99.90
22852;DHT22;11592;45.460;9.240;2022-08-01T01:04:21;25.90;99.90
22852;DHT22;11592;45.460;9.240;2022-08-01T01:15:08;25.60;99.90
22852;DHT22;11592;45.460;9.240;2022-08-01T01:18:04;25.50;99.90
22852;DHT22;11592;45.460;9.240;2022-08-01T01:20:40;25.40;99.90
22852;DHT22;11592;45.460;9.240;2022-08-01T01:25:51;25.40;99.90
22852;DHT22;11592;45.460;9.240;2022-08-01T01:29:02;25.40;99.90
22852;DHT22;11592;45.460;9.240;2022-08-01T01:31:21;25.40;99.90
22852;DHT22;11592;45.460;9.240;2022-08-01T01:33:51;25.30;99.90
22852;DHT22;11592;45.460;9.240;2022-08-01T01:36:20;25.30;99.90
22852;DHT22;11592;45.460;9.240;2022-08-01T01:38:48;25.20;99.90
22852;DHT22;11592;45.460;9.240;2022-08-01T01:41:17;25.20;99.90
22852;DHT22;11592;45.460;9.240;2022-08-01T01:43:46;25.20;99.90
22852;DHT22;11592;45.460;9.240;2022-08-01T01:46:17;25.30;99.90
22852;DHT22;11592;45.460;9.240;2022-08-01T01:48:46;25.30;99.90
22852;DHT22;11592;45.460;9.240;2022-08-01T01:51:15;25.20;99.90
22852;DHT22;11592;45.460;9.240;2022-08-01T01:53:43;25.20;99.90
22852;DHT22;11592;45.460;9.240;2022-08-01T01:56:11;25.10;99.90
22852;DHT22;11592;45.460;9.240;2022-08-01T01:58:42;25.10;99.90
22852;DHT22;11592;45.460;9.240;2022-08-01T02:01:10;25.20;99.90
22852;DHT22;11592;45.460;9.240;2022-08-01T02:03:42;25.20;99.90
22852;DHT22;11592;45.460;9.240;2022-08-01T02:06:12;25.10;99.90
22852;DHT22;11592;45.460;9.240;2022-08-01T02:08:41;25.00;99.90
22852;DHT22;11592;45.460;9.240;2022-08-01T02:11:09;25.10;99.90
22852;DHT22;11592;45.460;9.240;2022-08-01T02:16:20;25.10;99.90
22852;DHT22;11592;45.460;9.240;2022-08-01T02:18:49;25.00;99.90
22852;DHT22;11592;45.460;9.240;2022-08-01T02:24:17;24.90;99.90
22852;DHT22;11592;45.460;9.240;2022-08-01T02:26:48;24.90;99.90
22852;DHT22;11592;45.460;9.240;2022-08-01T02:29:22;24.90;99.90
22852;DHT22;11592;45.460;9.240;2022-08-01T02:31:56;24.90;99.90
22852;DHT22;11592;45.460;9.240;2022-08-01T02:34:25;24.90;99.90
22852;DHT22;11592;45.460;9.240;2022-08-01T02:36:56;24.80;99.90
22852;DHT22;11592;45.460;9.240;2022-08-01T02:39:27;24.90;99.90
22852;DHT22;11592;45.460;9.240;2022-08-01T02:41:58;24.90;99.90
22852;DHT22;11592;45.460;9.240;2022-08-01T02:44:31;25.00;99.90
22852;DHT22;11592;45.460;9.240;2022-08-01T02:47:03;25.10;99.90
22852;DHT22;11592;45.460;9.240;2022-08-01T02:49:37;25.00;99.90
22852;DHT22;11592;45.460;9.240;2022-08-01T02:52:08;24.90;99.90
22852;DHT22;11592;45.460;9.240;2022-08-01T02:54:37;24.80;99.90
22852;DHT22;11592;45.460;9.240;2022-08-01T02:57:07;24.80;99.90
22852;DHT22;11592;45.460;9.240;2022-08-01T02:59:40;24.80;99.90
22852;DHT22;11592;45.460;9.240;2022-08-01T03:02:08;24.90;99.90
22852;DHT22;11592;45.460;9.240;2022-08-01T03:04:37;24.90;99.90
22852;DHT22;11592;45.460;9.240;2022-08-01T03:07:07;23.30;99.90
22852;DHT22;11592;45.460;9.240;2022-08-01T03:09:39;24.80;99.90
22852;DHT22;11592;45.460;9.240;2022-08-01T03:12:17;24.70;99.90
22852;DHT22;11592;45.460;9.240;2022-08-01T03:14:47;24.70;99.90
22852;DHT22;11592;45.460;9.240;2022-08-01T03:17:16;24.70;99.90
22852;DHT22;11592;45.460;9.240;2022-08-01T03:19:45;24.60;99.90
22852;DHT22;11592;45.460;9.240;2022-08-01T03:22:14;25.60;99.90
22852;DHT22;11592;45.460;9.240;2022-08-01T03:24:44;24.60;99.90
22852;DHT22;11592;45.460;9.240;2022-08-01T03:27:18;24.60;99.90
22852;DHT22;11592;45.460;9.240;2022-08-01T03:29:47;24.50;99.90
22852;DHT22;11592;45.460;9.240;2022-08-01T03:32:15;24.60;99.90
22852;DHT22;11592;45.460;9.240;2022-08-01T03:34:43;24.60;99.90
22852;DHT22;11592;45.460;9.240;2022-08-01T03:39:48;24.60;99.90
22852;DHT22;11592;45.460;9.240;2022-08-01T03:42:20;24.60;99.90
22852;DHT22;11592;45.460;9.240;2022-08-01T03:44:54;24.50;99.90
22852;DHT22;11592;45.460;9.240;2022-08-01T03:47:24;24.50;99.90
22852;DHT22;11592;45.460;9.240;2022-08-01T03:49:53;24.50;99.90
22852;DHT22;11592;45.460;9.240;2022-08-01T03:52:21;24.40;99.90
22852;DHT22;11592;45.460;9.240;2022-08-01T03:54:53;24.50;99.90
22852;DHT22;11592;45.460;9.240;2022-08-01T03:57:21;24.50;99.90
22852;DHT22;11592;45.460;9.240;2022-08-01T04:00:05;24.40;99.90
22852;DHT22;11592;45.460;9.240;2022-08-01T04:02:36;24.40;99.90
22852;DHT22;11592;45.460;9.240;2022-08-01T04:05:04;24.40;99.90
22852;DHT22;11592;45.460;9.240;2022-08-01T04:07:33;24.50;99.90
22852;DHT22;11592;45.460;9.240;2022-08-01T04:10:03;24.50;99.90
22852;DHT22;11592;45.460;9.240;2022-08-01T04:12:31;24.50;99.90
22852;DHT22;11592;45.460;9.240;2022-08-01T04:14:59;24.50;99.90
22852;DHT22;11592;45.460;9.240;2022-08-01T04:17:25;24.50;99.90
22852;DHT22;11592;45.460;9.240;2022-08-01T04:19:52;24.60;99.90
22852;DHT22;11592;45.460;9.240;2022-08-01T04:22:19;24.60;99.90
22852;DHT22;11592;45.460;9.240;2022-08-01T04:24:51;24.50;99.90
22852;DHT22;11592;45.460;9.240;2022-08-01T04:27:28;24.50;99.90
22852;DHT22;11592;45.460;9.240;2022-08-01T04:30:24;24.70;99.90
22852;DHT22;11592;45.460;9.240;2022-08-01T04:32:55;24.80;99.90
22852;DHT22;11592;45.460;9.240;2022-08-01T04:35:24;24.80;99.90
22852;DHT22;11592;45.460;9.240;2022-08-01T04:38:13;24.80;99.90
22852;DHT22;11592;45.460;9.240;2022-08-01T04:40:44;24.80;99.90
22852;DHT22;11592;45.460;9.240;2022-08-01T04:43:12;24.70;99.90
22852;DHT22;11592;45.460;9.240;2022-08-01T04:45:40;24.70;99.90
22852;DHT22;11592;45.460;9.240;2022-08-01T04:48:11;24.70;99.90
22852;DHT22;11592;45.460;9.240;2022-08-01T04:50:41;24.80;99.90
22852;DHT22;11592;45.460;9.240;2022-08-01T04:53:16;24.90;99.90
22852;DHT22;11592;45.460;9.240;2022-08-01T04:55:44;24.90;99.90
22852;DHT22;11592;45.460;9.240;2022-08-01T04:58:13;24.90;99.90
22852;DHT22;11592;45.460;9.240;2022-08-01T05:00:43;24.90;99.90
22852;DHT22;11592;45.460;9.240;2022-08-01T05:03:10;25.00;99.90
22852;DHT22;11592;45.460;9.240;2022-08-01T05:05:37;25.00;99.90
22852;DHT22;11592;45.460;9.240;2022-08-01T05:08:04;25.00;99.90
22852;DHT22;11592;45.460;9.240;2022-08-01T05:10:33;25.20;99.90
22852;DHT22;11592;45.460;9.240;2022-08-01T05:13:00;25.30;99.90
22852;DHT22;11592;45.460;9.240;2022-08-01T05:15:26;25.40;99.90
22852;DHT22;11592;45.460;9.240;2022-08-01T05:17:54;25.40;99.90
22852;DHT22;11592;45.460;9.240;2022-08-01T05:20:22;25.40;99.90
22852;DHT22;11592;45.460;9.240;2022-08-01T05:22:49;25.50;99.90
22852;DHT22;11592;45.460;9.240;2022-08-01T05:25:16;25.50;99.90
22852;DHT22;11592;45.460;9.240;2022-08-01T05:28:02;25.60;99.90
22852;DHT22;11592;45.460;9.240;2022-08-01T05:30:30;25.70;99.90
22852;DHT22;11592;45.460;9.240;2022-08-01T05:32:56;25.80;99.90
22852;DHT22;11592;45.460;9.240;2022-08-01T05:35:23;25.80;99.90
22852;DHT22;11592;45.460;9.240;2022-08-01T05:38:10;25.90;99.90
22852;DHT22;11592;45.460;9.240;2022-08-01T05:40:40;26.00;99.90
22852;DHT22;11592;45.460;9.240;2022-08-01T05:43:07;26.00;99.90
22852;DHT22;11592;45.460;9.240;2022-08-01T05:45:34;26.10;99.90
22852;DHT22;11592;45.460;9.240;2022-08-01T05:48:00;26.10;99.90
22852;DHT22;11592;45.460;9.240;2022-08-01T05:50:27;26.20;99.90
22852;DHT22;11592;45.460;9.240;2022-08-01T05:52:54;26.40;99.90
22852;DHT22;11592;45.460;9.240;2022-08-01T05:55:21;26.40;99.90
22852;DHT22;11592;45.460;9.240;2022-08-01T05:57:47;26.40;99.90
22852;DHT22;11592;45.460;9.240;2022-08-01T06:00:14;26.50;99.90
22852;DHT22;11592;45.460;9.240;2022-08-01T06:02:42;26.60;99.90
22852;DHT22;11592;45.460;9.240;2022-08-01T06:05:10;26.60;99.90
22852;DHT22;11592;45.460;9.240;2022-08-01T06:07:39;26.70;99.90
22852;DHT22;11592;45.460;9.240;2022-08-01T06:10:07;26.80;99.90
22852;DHT22;11592;45.460;9.240;2022-08-01T06:12:34;26.80;99.90
22852;DHT22;11592;45.460;9.240;2022-08-01T06:15:02;26.80;99.90
22852;DHT22;11592;45.460;9.240;2022-08-01T06:17:29;26.80;99.90
22852;DHT22;11592;45.460;9.240;2022-08-01T06:19:56;26.90;99.90
22852;DHT22;11592;45.460;9.240;2022-08-01T06:22:23;27.30;99.90
22852;DHT22;11592;45.460;9.240;2022-08-01T06:24:51;27.00;99.90
22852;DHT22;11592;45.460;9.240;2022-08-01T06:27:18;27.00;99.90
22852;DHT22;11592;45.460;9.240;2022-08-01T06:29:48;27.10;99.90
22852;DHT22;11592;45.460;9.240;2022-08-01T06:32:20;27.20;99.90
22852;DHT22;11592;45.460;9.240;2022-08-01T06:34:53;27.20;99.90
22852;DHT22;11592;45.460;9.240;2022-08-01T06:37:21;27.30;99.90
22852;DHT22;11592;45.460;9.240;2022-08-01T06:39:48;27.40;99.90
22852;DHT22;11592;45.460;9.240;2022-08-01T06:42:16;27.40;99.90
22852;DHT22;11592;45.460;9.240;2022-08-01T06:44:44;27.40;99.90
22852;DHT22;11592;45.460;9.240;2022-08-01T06:47:11;27.50;99.90
22852;DHT22;11592;45.460;9.240;2022-08-01T06:49:38;27.50;99.90
22852;DHT22;11592;45.460;9.240;2022-08-01T06:52:05;27.70;99.90
22852;DHT22;11592;45.460;9.240;2022-08-01T06:54:32;27.70;99.90
22852;DHT22;11592;45.460;9.240;2022-08-01T06:56:59;27.80;99.90
22852;DHT22;11592;45.460;9.240;2022-08-01T06:59:25;27.90;99.90
22852;DHT22;11592;45.460;9.240;2022-08-01T07:01:52;28.00;99.90
22852;DHT22;11592;45.460;9.240;2022-08-01T07:04:19;28.10;99.90
22852;DHT22;11592;45.460;9.240;2022-08-01T07:06:46;28.10;99.90
22852;DHT22;11592;45.460;9.240;2022-08-01T07:09:12;28.10;99.20
22852;DHT22;11592;45.460;9.240;2022-08-01T07:11:40;28.20;99.00
22852;DHT22;11592;45.460;9.240;2022-08-01T07:14:07;28.20;98.90
22852;DHT22;11592;45.460;9.240;2022-08-01T07:16:34;28.20;99.40
22852;DHT22;11592;45.460;9.240;2022-08-01T07:19:01;28.20;99.20
22852;DHT22;11592;45.460;9.240;2022-08-01T07:21:28;28.30;99.00
22852;DHT22;11592;45.460;9.240;2022-08-01T07:24:08;28.40;99.00
22852;DHT22;11592;45.460;9.240;2022-08-01T07:26:46;28.40;99.40
22852;DHT22;11592;45.460;9.240;2022-08-01T07:29:22;28.40;99.70
22852;DHT22;11592;45.460;9.240;2022-08-01T07:31:49;28.40;99.20
22852;DHT22;11592;45.460;9.240;2022-08-01T07:34:15;28.40;99.50
22852;DHT22;11592;45.460;9.240;2022-08-01T07:36:42;28.40;99.30
22852;DHT22;11592;45.460;9.240;2022-08-01T07:39:09;28.50;99.20
22852;DHT22;11592;45.460;9.240;2022-08-01T07:41:36;28.50;99.10
22852;DHT22;11592;45.460;9.240;2022-08-01T07:44:22;28.50;99.70
22852;DHT22;11592;45.460;9.240;2022-08-01T07:46:53;28.50;99.40
22852;DHT22;11592;45.460;9.240;2022-08-01T07:49:20;28.50;99.50
22852;DHT22;11592;45.460;9.240;2022-08-01T07:51:48;28.60;99.50
22852;DHT22;11592;45.460;9.240;2022-08-01T07:54:35;28.60;99.40
22852;DHT22;11592;45.460;9.240;2022-08-01T07:57:03;28.60;99.30
22852;DHT22;11592;45.460;9.240;2022-08-01T07:59:30;28.70;99.20
22852;DHT22;11592;45.460;9.240;2022-08-01T08:01:57;28.70;98.90
22852;DHT22;11592;45.460;9.240;2022-08-01T08:04:24;28.70;98.60
22852;DHT22;11592;45.460;9.240;2022-08-01T08:06:51;28.70;98.90
22852;DHT22;11592;45.460;9.240;2022-08-01T08:09:19;28.70;98.80
22852;DHT22;11592;45.460;9.240;2022-08-01T08:11:46;28.80;99.10
22852;DHT22;11592;45.460;9.240;2022-08-01T08:14:15;28.70;99.00
22852;DHT22;11592;45.460;9.240;2022-08-01T08:16:42;28.70;98.70
22852;DHT22;11592;45.460;9.240;2022-08-01T08:19:09;28.80;98.60
22852;DHT22;11592;45.460;9.240;2022-08-01T08:21:37;28.80;99.10
22852;DHT22;11592;45.460;9.240;2022-08-01T08:24:04;28.80;98.90
22852;DHT22;11592;45.460;9.240;2022-08-01T08:26:57;28.90;99.10
22852;DHT22;11592;45.460;9.240;2022-08-01T08:29:24;29.00;98.90
22852;DHT22;11592;45.460;9.240;2022-08-01T08:31:53;29.00;98.60
22852;DHT22;11592;45.460;9.240;2022-08-01T08:34:22;28.90;98.50
22852;DHT22;11592;45.460;9.240;2022-08-01T08:36:49;29.00;98.50
22852;DHT22;11592;45.460;9.240;2022-08-01T08:39:17;28.80;98.50
22852;DHT22;11592;45.460;9.240;2022-08-01T08:41:46;28.80;98.50
22852;DHT22;11592;45.460;9.240;2022-08-01T08:44:16;28.70;98.50
22852;DHT22;11592;45.460;9.240;2022-08-01T08:46:49;28.70;98.50
22852;DHT22;11592;45.460;9.240;2022-08-01T08:49:21;28.90;98.00
22852;DHT22;11592;45.460;9.240;2022-08-01T08:51:50;29.10;98.30
22852;DHT22;11592;45.460;9.240;2022-08-01T08:54:21;29.30;98.30
22852;DHT22;11592;45.460;9.240;2022-08-01T08:56:58;29.40;97.70
22852;DHT22;11592;45.460;9.240;2022-08-01T08:59:26;29.60;98.00
22852;DHT22;11592;45.460;9.240;2022-08-01T09:01:54;29.80;97.60
22852;DHT22;11592;45.460;9.240;2022-08-01T09:04:22;29.90;97.20
22852;DHT22;11592;45.460;9.240;2022-08-01T09:06:53;29.90;97.10
22852;DHT22;11592;45.460;9.240;2022-08-01T09:09:20;29.90;96.70
22852;DHT22;11592;45.460;9.240;2022-08-01T09:11:47;29.90;97.40
22852;DHT22;11592;45.460;9.240;2022-08-01T09:14:32;29.80;96.50
22852;DHT22;11592;45.460;9.240;2022-08-01T09:17:05;29.90;96.70
22852;DHT22;11592;45.460;9.240;2022-08-01T09:19:41;30.00;96.70
22852;DHT22;11592;45.460;9.240;2022-08-01T09:22:10;30.10;96.80
22852;DHT22;11592;45.460;9.240;2022-08-01T09:24:38;30.20;96.70
22852;DHT22;11592;45.460;9.240;2022-08-01T09:27:21;30.30;96.70
22852;DHT22;11592;45.460;9.240;2022-08-01T09:29:52;30.40;97.00
22852;DHT22;11592;45.460;9.240;2022-08-01T09:32:28;30.50;96.60
22852;DHT22;11592;45.460;9.240;2022-08-01T09:35:24;30.50;96.10
22852;DHT22;11592;45.460;9.240;2022-08-01T09:41:00;30.70;96.70
22852;DHT22;11592;45.460;9.240;2022-08-01T09:43:29;30.70;96.40
22852;DHT22;11592;45.460;9.240;2022-08-01T09:45:58;30.90;95.80
22852;DHT22;11592;45.460;9.240;2022-08-01T09:48:26;30.90;95.40
22852;DHT22;11592;45.460;9.240;2022-08-01T09:50:57;31.00;95.00
22852;DHT22;11592;45.460;9.240;2022-08-01T09:53:46;31.10;94.90
22852;DHT22;11592;45.460;9.240;2022-08-01T09:56:20;31.20;95.80
22852;DHT22;11592;45.460;9.240;2022-08-01T10:01:24;31.30;93.30
22852;DHT22;11592;45.460;9.240;2022-08-01T10:04:10;31.30;91.80
22852;DHT22;11592;45.460;9.240;2022-08-01T10:06:41;31.40;91.90
22852;DHT22;11592;45.460;9.240;2022-08-01T10:09:13;31.40;92.50
22852;DHT22;11592;45.460;9.240;2022-08-01T10:11:43;31.50;93.60
22852;DHT22;11592;45.460;9.240;2022-08-01T10:14:11;31.60;93.40
22852;DHT22;11592;45.460;9.240;2022-08-01T10:16:45;31.70;93.30
22852;DHT22;11592;45.460;9.240;2022-08-01T10:19:22;31.70;92.30
22852;DHT22;11592;45.460;9.240;2022-08-01T10:21:54;31.70;91.90
22852;DHT22;11592;45.460;9.240;2022-08-01T10:24:26;31.90;93.00
22852;DHT22;11592;45.460;9.240;2022-08-01T10:27:03;32.00;92.30
22852;DHT22;11592;45.460;9.240;2022-08-01T10:29:57;32.10;91.80
22852;DHT22;11592;45.460;9.240;2022-08-01T10:32:42;32.20;91.10
22852;DHT22;11592;45.460;9.240;2022-08-01T10:35:16;32.40;91.20
22852;DHT22;11592;45.460;9.240;2022-08-01T10:38:04;32.50;91.60
22852;DHT22;11592;45.460;9.240;2022-08-01T10:40:36;32.60;91.60
22852;DHT22;11592;45.460;9.240;2022-08-01T10:43:05;32.70;91.30
22852;DHT22;11592;45.460;9.240;2022-08-01T10:45:33;32.80;91.20
22852;DHT22;11592;45.460;9.240;2022-08-01T10:48:29;32.90;91.20
22852;DHT22;11592;45.460;9.240;2022-08-01T10:51:00;33.10;91.40
22852;DHT22;11592;45.460;9.240;2022-08-01T10:53:28;33.00;89.00
22852;DHT22;11592;45.460;9.240;2022-08-01T10:56:07;32.90;87.80
22852;DHT22;11592;45.460;9.240;2022-08-01T10:58:39;33.10;89.20
22852;DHT22;11592;45.460;9.240;2022-08-01T11:01:24;33.20;83.20
22852;DHT22;11592;45.460;9.240;2022-08-01T11:04:08;33.10;80.20
22852;DHT22;11592;45.460;9.240;2022-08-01T11:07:05;33.00;79.90
22852;DHT22;11592;45.460;9.240;2022-08-01T11:09:46;33.10;83.50
22852;DHT22;11592;45.460;9.240;2022-08-01T11:12:18;33.40;81.20
22852;DHT22;11592;45.460;9.240;2022-08-01T11:15:16;33.50;78.10
22852;DHT22;11592;45.460;9.240;2022-08-01T11:17:57;33.60;76.70
22852;DHT22;11592;45.460;9.240;2022-08-01T11:20:27;33.70;76.50
22852;DHT22;11592;45.460;9.240;2022-08-01T11:28:26;34.10;75.50
22852;DHT22;11592;45.460;9.240;2022-08-01T11:39:24;34.70;78.50
22852;DHT22;11592;45.460;9.240;2022-08-01T11:41:40;34.80;76.50
22852;DHT22;11592;45.460;9.240;2022-08-01T11:44:11;34.90;72.40
22852;DHT22;11592;45.460;9.240;2022-08-01T11:46:46;34.90;72.50
22852;DHT22;11592;45.460;9.240;2022-08-01T11:52:09;35.00;71.30
22852;DHT22;11592;45.460;9.240;2022-08-01T11:54:48;35.10;71.50
22852;DHT22;11592;45.460;9.240;2022-08-01T11:57:21;35.10;72.10
22852;DHT22;11592;45.460;9.240;2022-08-01T11:59:58;35.40;75.10
22852;DHT22;11592;45.460;9.240;2022-08-01T12:02:33;35.60;72.30
22852;DHT22;11592;45.460;9.240;2022-08-01T12:05:20;35.80;70.10
22852;DHT22;11592;45.460;9.240;2022-08-01T12:07:51;35.90;68.40
22852;DHT22;11592;45.460;9.240;2022-08-01T12:10:20;36.20;69.20
22852;DHT22;11592;45.460;9.240;2022-08-01T12:12:48;36.30;71.50
22852;DHT22;11592;45.460;9.240;2022-08-01T12:15:15;36.60;70.40
22852;DHT22;11592;45.460;9.240;2022-08-01T12:17:48;36.80;69.30
22852;DHT22;11592;45.460;9.240;2022-08-01T12:20:30;36.90;65.70
22852;DHT22;11592;45.460;9.240;2022-08-01T12:23:06;37.20;67.10
22852;DHT22;11592;45.460;9.240;2022-08-01T12:25:34;37.20;63.70
22852;DHT22;11592;45.460;9.240;2022-08-01T12:28:03;37.10;64.40
22852;DHT22;11592;45.460;9.240;2022-08-01T12:30:31;37.30;62.50
22852;DHT22;11592;45.460;9.240;2022-08-01T12:33:07;37.80;64.50
22852;DHT22;11592;45.460;9.240;2022-08-01T12:35:36;38.10;63.50
22852;DHT22;11592;45.460;9.240;2022-08-01T12:38:06;38.50;64.30
22852;DHT22;11592;45.460;9.240;2022-08-01T12:40:42;38.60;60.00
22852;DHT22;11592;45.460;9.240;2022-08-01T12:43:16;38.80;65.00
22852;DHT22;11592;45.460;9.240;2022-08-01T12:45:55;39.10;59.50
22852;DHT22;11592;45.460;9.240;2022-08-01T12:48:24;39.40;59.80
22852;DHT22;11592;45.460;9.240;2022-08-01T12:50:52;39.70;59.90
22852;DHT22;11592;45.460;9.240;2022-08-01T12:53:20;40.10;58.10
22852;DHT22;11592;45.460;9.240;2022-08-01T12:55:50;40.10;55.40
22852;DHT22;11592;45.460;9.240;2022-08-01T12:58:31;40.20;57.50
22852;DHT22;11592;45.460;9.240;2022-08-01T13:01:07;40.40;56.00
22852;DHT22;11592;45.460;9.240;2022-08-01T13:03:34;40.70;56.00
22852;DHT22;11592;45.460;9.240;2022-08-01T13:06:13;41.00;59.10
22852;DHT22;11592;45.460;9.240;2022-08-01T13:08:41;41.10;54.10
22852;DHT22;11592;45.460;9.240;2022-08-01T13:11:10;41.00;52.10
22852;DHT22;11592;45.460;9.240;2022-08-01T13:16:10;41.20;51.20
22852;DHT22;11592;45.460;9.240;2022-08-01T13:18:55;40.90;50.00
22852;DHT22;11592;45.460;9.240;2022-08-01T13:21:30;41.00;53.00
22852;DHT22;11592;45.460;9.240;2022-08-01T13:24:26;41.50;51.70
22852;DHT22;11592;45.460;9.240;2022-08-01T13:26:57;42.00;50.20
22852;DHT22;11592;45.460;9.240;2022-08-01T13:29:38;42.50;47.70
22852;DHT22;11592;45.460;9.240;2022-08-01T13:32:20;42.70;45.60
22852;DHT22;11592;45.460;9.240;2022-08-01T13:35:06;42.90;46.40
22852;DHT22;11592;45.460;9.240;2022-08-01T13:37:35;43.30;46.00
22852;DHT22;11592;45.460;9.240;2022-08-01T13:40:06;43.50;44.80
22852;DHT22;11592;45.460;9.240;2022-08-01T13:42:33;43.50;48.30
22852;DHT22;11592;45.460;9.240;2022-08-01T13:45:01;43.80;47.80
22852;DHT22;11592;45.460;9.240;2022-08-01T13:47:29;43.80;50.30
22852;DHT22;11592;45.460;9.240;2022-08-01T13:49:58;43.80;44.30
22852;DHT22;11592;45.460;9.240;2022-08-01T13:52:28;44.00;44.10
22852;DHT22;11592;45.460;9.240;2022-08-01T13:54:55;44.00;43.50
22852;DHT22;11592;45.460;9.240;2022-08-01T13:57:22;44.30;44.20
22852;DHT22;11592;45.460;9.240;2022-08-01T13:59:49;44.30;42.70
22852;DHT22;11592;45.460;9.240;2022-08-01T14:02:16;44.60;43.80
22852;DHT22;11592;45.460;9.240;2022-08-01T14:04:42;44.70;42.60
22852;DHT22;11592;45.460;9.240;2022-08-01T14:07:09;44.90;42.40
22852;DHT22;11592;45.460;9.240;2022-08-01T14:09:41;44.80;41.00
22852;DHT22;11592;45.460;9.240;2022-08-01T14:12:28;44.60;40.30
22852;DHT22;11592;45.460;9.240;2022-08-01T14:14:55;44.50;40.30
22852;DHT22;11592;45.460;9.240;2022-08-01T14:17:22;44.20;39.10
22852;DHT22;11592;45.460;9.240;2022-08-01T14:19:49;43.90;39.00
22852;DHT22;11592;45.460;9.240;2022-08-01T14:22:16;43.70;39.00
22852;DHT22;11592;45.460;9.240;2022-08-01T14:24:43;43.90;39.90
22852;DHT22;11592;45.460;9.240;2022-08-01T14:27:10;44.20;42.70
22852;DHT22;11592;45.460;9.240;2022-08-01T14:29:36;44.40;39.90
22852;DHT22;11592;45.460;9.240;2022-08-01T14:32:23;44.70;39.30
22852;DHT22;11592;45.460;9.240;2022-08-01T14:34:55;44.20;37.40
22852;DHT22;11592;45.460;9.240;2022-08-01T14:37:23;43.80;38.10
22852;DHT22;11592;45.460;9.240;2022-08-01T14:39:59;43.50;38.80
22852;DHT22;11592;45.460;9.240;2022-08-01T14:42:27;43.90;39.30
22852;DHT22;11592;45.460;9.240;2022-08-01T14:44:53;44.30;39.70
22852;DHT22;11592;45.460;9.240;2022-08-01T14:47:20;44.80;39.60
22852;DHT22;11592;45.460;9.240;2022-08-01T14:49:49;45.30;38.30
22852;DHT22;11592;45.460;9.240;2022-08-01T14:52:17;45.40;37.70
22852;DHT22;11592;45.460;9.240;2022-08-01T14:54:44;45.40;37.70
22852;DHT22;11592;45.460;9.240;2022-08-01T14:57:11;45.30;39.50
22852;DHT22;11592;45.460;9.240;2022-08-01T14:59:38;44.60;38.30
22852;DHT22;11592;45.460;9.240;2022-08-01T15:02:05;43.80;39.00
22852;DHT22;11592;45.460;9.240;2022-08-01T15:04:32;43.80;39.90
22852;DHT22;11592;45.460;9.240;2022-08-01T15:06:59;43.90;38.80
22852;DHT22;11592;45.460;9.240;2022-08-01T15:09:26;44.10;39.40
22852;DHT22;11592;45.460;9.240;2022-08-01T15:11:52;43.70;38.50
22852;DHT22;11592;45.460;9.240;2022-08-01T15:14:19;43.00;38.50
22852;DHT22;11592;45.460;9.240;2022-08-01T15:17:04;42.30;38.70
22852;DHT22;11592;45.460;9.240;2022-08-01T15:19:32;42.40;42.50
22852;DHT22;11592;45.460;9.240;2022-08-01T15:22:01;42.70;40.20
22852;DHT22;11592;45.460;9.240;2022-08-01T15:24:29;42.90;40.80
22852;DHT22;11592;45.460;9.240;2022-08-01T15:26:55;43.10;38.80
22852;DHT22;11592;45.460;9.240;2022-08-01T15:29:22;43.10;39.00
22852;DHT22;11592;45.460;9.240;2022-08-01T15:31:49;43.00;40.30
22852;DHT22;11592;45.460;9.240;2022-08-01T15:34:16;42.40;39.30
22852;DHT22;11592;45.460;9.240;2022-08-01T15:36:43;42.00;39.30
22852;DHT22;11592;45.460;9.240;2022-08-01T15:39:14;41.40;39.40
22852;DHT22;11592;45.460;9.240;2022-08-01T15:41:41;41.50;42.30
22852;DHT22;11592;45.460;9.240;2022-08-01T15:44:08;41.40;40.10
22852;DHT22;11592;45.460;9.240;2022-08-01T15:46:35;41.40;40.90
22852;DHT22;11592;45.460;9.240;2022-08-01T15:49:03;41.50;40.50
22852;DHT22;11592;45.460;9.240;2022-08-01T15:51:31;41.70;40.40
22852;DHT22;11592;45.460;9.240;2022-08-01T15:53:59;41.40;38.60
22852;DHT22;11592;45.460;9.240;2022-08-01T15:56:29;41.00;38.90
22852;DHT22;11592;45.460;9.240;2022-08-01T15:58:56;40.80;38.50
22852;DHT22;11592;45.460;9.240;2022-08-01T16:01:23;40.50;38.00
22852;DHT22;11592;45.460;9.240;2022-08-01T16:03:53;40.50;38.90
22852;DHT22;11592;45.460;9.240;2022-08-01T16:06:20;40.40;38.50
22852;DHT22;11592;45.460;9.240;2022-08-01T16:08:47;40.30;37.90
22852;DHT22;11592;45.460;9.240;2022-08-01T16:11:14;40.30;38.30
22852;DHT22;11592;45.460;9.240;2022-08-01T16:13:41;40.20;39.80
22852;DHT22;11592;45.460;9.240;2022-08-01T16:16:09;40.00;39.40
22852;DHT22;11592;45.460;9.240;2022-08-01T16:18:36;39.90;38.80
22852;DHT22;11592;45.460;9.240;2022-08-01T16:21:03;39.80;38.20
22852;DHT22;11592;45.460;9.240;2022-08-01T16:23:30;39.80;38.10
22852;DHT22;11592;45.460;9.240;2022-08-01T16:25:57;39.80;38.80
22852;DHT22;11592;45.460;9.240;2022-08-01T16:28:24;39.70;38.90
22852;DHT22;11592;45.460;9.240;2022-08-01T16:30:51;39.60;40.00
22852;DHT22;11592;45.460;9.240;2022-08-01T16:33:37;39.60;38.40
22852;DHT22;11592;45.460;9.240;2022-08-01T16:36:20;39.50;37.60